HSSS Airport Information

Runway Information
Runway 18 Length 9751 ft width 148 ft
Elevation 1265 ft Threshold 0 ft Heading 177
Runway 36 Length 9751 ft Width 148 ft
Elevation 1260 ft Threshold 0 ft Heading 357
Airport Frequencies
Type APP Name Khartoum A Frequency 124.7 MHZ
Type EMR Name FIRE Frequency 121.9 MHZ
Type North Area Name North Sect Frequency 125.4 MHZ
Type South Area Name South Sect Frequency 127.3 MHZ
Type TWR Name Khartoum T Frequency 119.2 MHZ
Airport Navaids
Type VOR-DME Name Khartoum Frequency 112100 KHZ
Airport Weather Information & NOTAM
ADDS - METARS form results

(1608 UTC 19 August 2019)
Data provider http://aviationweather.gov/metar/data/
 
METAR text: HSSS 191600Z 21006KT 9999 FEW050 29/22 Q1011 NOSIG
Conditions at: HSSS (KHARTOUM (CIV/MI, SD) observed 1600 UTC 19 August 2019
Temperature: 29.0°C (84°F)
Dewpoint: 22.0°C (72°F) [RH = 66%]
Pressure (altimeter): 29.85 inches Hg (1011.0 mb)
Winds: from the SSW (210 degrees) at 7 MPH (6 knots; 3.1 m/s)
Visibility: 6 or more miles (10+ km)
Ceiling: at least 12,000 feet AGL
Clouds: few clouds at 5000 feet AGL
Weather: no significant weather observed at this time

METAR text: HSSS 191530Z 21008KT 9999 FEW050 29/21 Q1011 NOSIG
Conditions at: HSSS (KHARTOUM (CIV/MI, SD) observed 1530 UTC 19 August 2019
Temperature: 29.0°C (84°F)
Dewpoint: 21.0°C (70°F) [RH = 62%]
Pressure (altimeter): 29.85 inches Hg (1011.0 mb)
Winds: from the SSW (210 degrees) at 9 MPH (8 knots; 4.1 m/s)
Visibility: 6 or more miles (10+ km)
Ceiling: at least 12,000 feet AGL
Clouds: few clouds at 5000 feet AGL
Weather: no significant weather observed at this time

Forecast for: HSSS (KHARTOUM (CIV/MI, SD)
Text: TAF HSSS 191100Z 1912/2018 18010G20KT 9999 FEW040 BKN140
Forecast period: 1200 UTC 19 August 2019 to 1800 UTC 20 August 2019
Forecast type: FROM: standard forecast or significant change
Winds: from the S (180 degrees) at 12 MPH (10 knots; 5.1 m/s)
gusting to 23 MPH (20 knots; 10.3 m/s)
Visibility: 6 or more miles 10+ km)
Ceiling: 14000 feet AGL
Clouds: few clouds at 4000 feet AGL
broken clouds at 14000 feet AGL
Weather: no significant weather forecast for this period
Text: TEMPO 1912/1915 6000 -SHRA BKN140
Forecast period: 1200 to 1500 UTC 19 August 2019
Forecast type: TEMPORARY: The following changes expected for less than half the time period
Visibility: 4 miles (6 km)
Ceiling: 14000 feet AGL
Clouds: broken clouds at 14000 feet AGL
Weather: -SHRA  (light rain showers)
Text: TEMPO 1915/1921 9999 SCT140 BKN140
Forecast period: 1500 to 2100 UTC 19 August 2019
Forecast type: TEMPORARY: The following changes expected for less than half the time period
Visibility: 6 or more miles 10+ km)
Ceiling: 14000 feet AGL
Clouds: scattered clouds at 14000 feet AGL
broken clouds at 14000 feet AGL
Weather: no significant weather forecast for this period